Time;durP1;ratioP1;P1;durP2;ratioP2;P2;SDS_P1;SDS_P2;PMS_P1;PMS_P2;Temp;Humidity;BMP_temperature;BMP_pressure;BME280_temperature;BME280_humidity;BME280_pressure;Samples;Min_cycle;Max_cycle;Signal;HPM_P1;HPM_P2
2022/09/08 00:02:18;;;;;;;;;;;17.50;99.90;;;;;;5056967;28;19947;-62
2022/09/08 00:04:44;;;;;;;;;;;17.50;99.90;;;;;;5055397;28;19921;-63
2022/09/08 00:07:09;;;;;;;;;;;17.50;99.90;;;;;;5056926;28;20015;-64
2022/09/08 00:09:35;;;;;;;;;;;17.50;99.90;;;;;;5056603;28;19909;-63
2022/09/08 00:12:01;;;;;;;;;;;17.60;99.90;;;;;;5056532;28;20391;-62
2022/09/08 00:14:28;;;;;;;;;;;17.60;99.90;;;;;;5056758;28;20019;-62
2022/09/08 00:16:53;;;;;;;;;;;17.60;99.90;;;;;;5056705;28;19945;-63
2022/09/08 00:19:19;;;;;;;;;;;17.60;99.90;;;;;;5056488;28;19908;-63
2022/09/08 00:21:44;;;;;;;;;;;17.60;99.90;;;;;;5056382;28;20023;-62
2022/09/08 00:24:10;;;;;;;;;;;17.60;99.90;;;;;;5056220;28;20295;-63
2022/09/08 00:26:35;;;;;;;;;;;17.50;99.90;;;;;;5056228;28;19909;-61
2022/09/08 00:29:00;;;;;;;;;;;17.60;99.90;;;;;;5056198;28;19931;-62
2022/09/08 00:31:26;;;;;;;;;;;17.60;99.90;;;;;;5056435;28;19913;-62
2022/09/08 00:33:52;;;;;;;;;;;17.60;99.90;;;;;;5056387;28;19913;-64
2022/09/08 00:36:18;;;;;;;;;;;17.60;99.90;;;;;;5056213;28;19909;-64
2022/09/08 00:38:44;;;;;;;;;;;17.60;99.90;;;;;;5055874;28;19940;-63
2022/09/08 00:41:11;;;;;;;;;;;17.60;99.90;;;;;;5056272;28;19909;-63
2022/09/08 00:43:38;;;;;;;;;;;17.60;99.90;;;;;;5056217;28;19998;-63
2022/09/08 00:48:54;;;;;;;;;;;17.60;99.90;;;;;;5091254;27;19912;-66
2022/09/08 00:51:21;;;;;;;;;;;17.60;99.90;;;;;;5091449;28;20294;-66
2022/09/08 00:53:47;;;;;;;;;;;17.50;99.90;;;;;;5091152;28;20410;-67
2022/09/08 00:56:13;;;;;;;;;;;17.50;99.90;;;;;;5091127;28;19908;-66
2022/09/08 00:58:39;;;;;;;;;;;17.50;99.90;;;;;;5091316;28;20389;-67
2022/09/08 01:01:05;;;;;;;;;;;17.50;99.90;;;;;;5090985;28;19908;-67
2022/09/08 01:03:31;;;;;;;;;;;17.50;99.90;;;;;;5091206;28;20420;-67
2022/09/08 01:06:17;;;;;;;;;;;17.50;99.90;;;;;;5090939;28;19915;-67
2022/09/08 01:14:42;;;;;;;;;;;17.40;99.90;;;;;;5090580;28;19908;-67
2022/09/08 01:17:16;;;;;;;;;;;17.40;99.90;;;;;;5117882;28;19915;-67
2022/09/08 01:19:42;;;;;;;;;;;17.50;99.90;;;;;;5090583;28;19908;-67
2022/09/08 01:22:28;;;;;;;;;;;17.50;99.90;;;;;;5090855;28;19916;-67
2022/09/08 01:25:13;;;;;;;;;;;17.60;99.90;;;;;;5090575;28;19909;-65
2022/09/08 01:27:39;;;;;;;;;;;17.60;99.90;;;;;;5090435;28;19913;-65
2022/09/08 01:30:07;;;;;;;;;;;17.70;99.90;;;;;;5090685;28;20426;-65
2022/09/08 01:32:34;;;;;;;;;;;17.70;99.90;;;;;;5090285;28;20007;-65
2022/09/08 01:35:00;;;;;;;;;;;17.70;99.90;;;;;;5090582;28;19916;-65
2022/09/08 01:37:25;;;;;;;;;;;17.70;99.90;;;;;;5090574;28;19931;-65
2022/09/08 01:39:51;;;;;;;;;;;17.70;99.90;;;;;;5123159;28;20318;-65
2022/09/08 01:42:16;;;;;;;;;;;17.70;99.90;;;;;;5090224;28;19908;-65
2022/09/08 01:44:43;;;;;;;;;;;17.70;99.90;;;;;;5090394;28;20027;-65
2022/09/08 01:47:09;;;;;;;;;;;17.70;99.90;;;;;;5096660;28;19970;-65
2022/09/08 01:49:34;;;;;;;;;;;17.60;99.90;;;;;;5110369;28;19908;-65
2022/09/08 01:52:00;;;;;;;;;;;17.60;99.90;;;;;;5110635;28;19912;-65
2022/09/08 01:54:27;;;;;;;;;;;17.60;99.90;;;;;;5110558;28;20421;-65
2022/09/08 01:56:54;;;;;;;;;;;17.50;99.90;;;;;;5110505;28;19912;-65
2022/09/08 01:59:19;;;;;;;;;;;17.50;99.90;;;;;;5101358;28;19908;-65
2022/09/08 02:01:45;;;;;;;;;;;17.60;99.90;;;;;;5096871;28;19991;-66
2022/09/08 02:04:10;;;;;;;;;;;17.50;99.90;;;;;;5096803;28;19911;-65
2022/09/08 02:06:36;;;;;;;;;;;17.60;99.90;;;;;;5096694;28;20015;-65
2022/09/08 02:09:01;;;;;;;;;;;17.50;99.90;;;;;;5096462;28;19915;-65
2022/09/08 02:11:27;;;;;;;;;;;17.50;99.90;;;;;;5096407;28;19908;-65
2022/09/08 02:13:52;;;;;;;;;;;17.50;99.90;;;;;;5096370;28;19914;-66
2022/09/08 02:16:18;;;;;;;;;;;17.40;99.90;;;;;;5096345;28;19931;-66
2022/09/08 02:18:43;;;;;;;;;;;17.40;99.90;;;;;;5096372;28;19908;-67
2022/09/08 02:21:10;;;;;;;;;;;17.40;99.90;;;;;;5096249;28;19995;-65
2022/09/08 02:23:37;;;;;;;;;;;17.50;99.90;;;;;;5096514;28;20251;-66
2022/09/08 02:26:03;;;;;;;;;;;17.40;99.90;;;;;;5096170;28;20362;-66
2022/09/08 02:28:28;;;;;;;;;;;17.40;99.90;;;;;;5096106;28;19919;-65
2022/09/08 02:30:57;;;;;;;;;;;17.40;99.90;;;;;;5096305;28;19909;-65
2022/09/08 02:33:23;;;;;;;;;;;17.40;99.90;;;;;;5096280;28;20315;-65
2022/09/08 02:35:48;;;;;;;;;;;17.40;99.90;;;;;;5096245;28;19908;-65
2022/09/08 02:38:14;;;;;;;;;;;17.40;99.90;;;;;;5096031;28;19908;-65
2022/09/08 02:40:39;;;;;;;;;;;17.40;99.90;;;;;;5078052;28;19986;-65
2022/09/08 02:43:04;;;;;;;;;;;17.40;99.90;;;;;;5096076;28;19908;-65
2022/09/08 02:45:30;;;;;;;;;;;17.50;99.90;;;;;;5077734;28;20397;-65
2022/09/08 02:47:56;;;;;;;;;;;17.40;99.90;;;;;;5095532;28;19920;-65
2022/09/08 02:50:21;;;;;;;;;;;17.40;99.90;;;;;;5095908;28;19908;-65
2022/09/08 02:52:46;;;;;;;;;;;17.40;99.90;;;;;;5095972;28;19908;-65
2022/09/08 02:55:12;;;;;;;;;;;17.40;99.90;;;;;;5095561;28;20362;-65
2022/09/08 02:57:38;;;;;;;;;;;17.40;99.90;;;;;;5095787;28;19931;-65
2022/09/08 03:00:03;;;;;;;;;;;17.40;99.90;;;;;;5095534;28;20313;-65
2022/09/08 03:02:29;;;;;;;;;;;17.40;99.90;;;;;;5095416;28;20263;-66
2022/09/08 03:04:54;;;;;;;;;;;17.40;99.90;;;;;;5095358;28;19912;-65
2022/09/08 03:07:20;;;;;;;;;;;17.40;99.90;;;;;;5077074;28;19920;-65
2022/09/08 03:09:46;;;;;;;;;;;17.40;99.90;;;;;;5094974;28;19955;-66
2022/09/08 03:12:12;;;;;;;;;;;17.40;99.90;;;;;;5094870;28;19908;-66
2022/09/08 03:14:37;;;;;;;;;;;17.40;99.90;;;;;;5095192;28;20419;-66
2022/09/08 03:17:03;;;;;;;;;;;17.40;99.90;;;;;;5095191;28;20285;-66
2022/09/08 03:19:29;;;;;;;;;;;17.40;99.90;;;;;;5095398;28;19915;-65
2022/09/08 03:21:54;;;;;;;;;;;17.40;99.90;;;;;;5095053;28;19995;-66
2022/09/08 03:24:20;;;;;;;;;;;17.40;99.90;;;;;;5095031;28;19916;-66
2022/09/08 03:26:45;;;;;;;;;;;17.50;99.90;;;;;;5094923;28;19959;-66
2022/09/08 03:29:11;;;;;;;;;;;17.40;99.90;;;;;;5094884;28;19908;-66
2022/09/08 03:31:36;;;;;;;;;;;17.40;99.90;;;;;;5095130;28;19918;-66
2022/09/08 03:34:02;;;;;;;;;;;17.40;99.90;;;;;;5095073;28;20358;-65
2022/09/08 03:36:27;;;;;;;;;;;17.40;99.90;;;;;;5095050;28;20398;-66
2022/09/08 03:38:54;;;;;;;;;;;17.40;99.90;;;;;;5094992;28;20288;-66
2022/09/08 03:41:19;;;;;;;;;;;17.30;99.90;;;;;;5094758;28;20290;-66
2022/09/08 03:43:46;;;;;;;;;;;17.30;99.90;;;;;;5094927;28;19915;-66
2022/09/08 03:46:12;;;;;;;;;;;17.20;99.90;;;;;;5094845;28;19917;-65
2022/09/08 03:48:38;;;;;;;;;;;17.20;99.90;;;;;;5076179;28;19954;-65
2022/09/08 03:51:08;;;;;;;;;;;17.20;99.90;;;;;;5094753;28;19916;-65
2022/09/08 03:53:33;;;;;;;;;;;17.20;99.90;;;;;;5094723;28;20377;-65
2022/09/08 03:55:59;;;;;;;;;;;17.20;99.90;;;;;;5094725;28;19908;-65
2022/09/08 03:58:24;;;;;;;;;;;17.20;99.90;;;;;;5094679;28;19915;-65
2022/09/08 04:00:50;;;;;;;;;;;17.20;99.90;;;;;;5094611;28;19918;-65
2022/09/08 04:03:15;;;;;;;;;;;17.20;99.90;;;;;;5094553;28;19916;-65
2022/09/08 04:05:41;;;;;;;;;;;17.20;99.90;;;;;;5094224;28;19908;-65
2022/09/08 04:08:07;;;;;;;;;;;17.20;99.90;;;;;;5094060;28;19912;-66
2022/09/08 04:10:32;;;;;;;;;;;17.20;99.90;;;;;;5094446;28;19908;-66
2022/09/08 04:12:58;;;;;;;;;;;17.20;99.90;;;;;;5094101;28;19961;-66
2022/09/08 04:15:23;;;;;;;;;;;17.10;99.90;;;;;;5094365;28;19916;-65
2022/09/08 04:17:49;;;;;;;;;;;17.10;99.90;;;;;;5094099;28;19908;-65
2022/09/08 04:20:17;;;;;;;;;;;17.10;99.90;;;;;;5094328;28;20327;-66
2022/09/08 04:22:42;;;;;;;;;;;17.00;99.90;;;;;;5093707;28;19908;-66
2022/09/08 04:25:08;;;;;;;;;;;17.00;99.90;;;;;;5094259;28;19908;-68
2022/09/08 04:27:33;;;;;;;;;;;17.00;99.90;;;;;;5093898;28;19912;-69
2022/09/08 04:29:59;;;;;;;;;;;17.00;99.90;;;;;;5093964;28;19908;-65
2022/09/08 04:32:24;;;;;;;;;;;17.00;99.90;;;;;;5094132;28;20439;-65
2022/09/08 04:34:50;;;;;;;;;;;16.90;99.90;;;;;;5094123;28;19919;-63
2022/09/08 04:37:15;;;;;;;;;;;17.00;99.90;;;;;;5075772;28;19908;-63
2022/09/08 04:39:41;;;;;;;;;;;16.90;99.90;;;;;;5093759;28;20259;-63
2022/09/08 04:42:07;;;;;;;;;;;16.90;99.90;;;;;;5094009;28;19908;-63
2022/09/08 04:44:33;;;;;;;;;;;16.90;99.90;;;;;;5094021;28;20397;-62
2022/09/08 04:46:58;;;;;;;;;;;16.90;99.90;;;;;;5093640;28;19920;-63
2022/09/08 04:49:24;;;;;;;;;;;17.00;99.90;;;;;;5093666;28;19930;-64
2022/09/08 04:51:52;;;;;;;;;;;16.90;99.90;;;;;;5093698;28;19908;-64
2022/09/08 04:54:18;;;;;;;;;;;16.90;99.90;;;;;;5093885;28;19911;-63
2022/09/08 04:56:43;;;;;;;;;;;17.00;99.90;;;;;;5093885;28;19915;-63
2022/09/08 04:59:09;;;;;;;;;;;17.00;99.90;;;;;;5093890;28;19908;-63
2022/09/08 05:01:35;;;;;;;;;;;16.90;99.90;;;;;;5093627;28;19915;-64
2022/09/08 05:04:01;;;;;;;;;;;16.90;99.90;;;;;;5093808;28;19916;-63
2022/09/08 05:06:28;;;;;;;;;;;16.90;99.90;;;;;;5093758;28;19908;-64
2022/09/08 05:08:56;;;;;;;;;;;16.90;99.90;;;;;;5093508;28;20366;-63
2022/09/08 05:11:23;;;;;;;;;;;16.90;99.90;;;;;;5093579;28;19972;-66
2022/09/08 05:13:49;;;;;;;;;;;16.90;99.90;;;;;;5093418;28;19977;-65
2022/09/08 05:16:17;;;;;;;;;;;16.90;99.90;;;;;;5075848;28;19908;-63
2022/09/08 05:18:59;;;;;;;;;;;17.00;99.90;;;;;;5093627;28;19908;-63
2022/09/08 05:21:25;;;;;;;;;;;17.00;99.90;;;;;;5093657;28;20267;-63
2022/09/08 05:23:51;;;;;;;;;;;17.00;99.90;;;;;;5093565;28;19912;-63
2022/09/08 05:26:17;;;;;;;;;;;17.00;99.90;;;;;;5093616;28;20278;-64
2022/09/08 05:28:43;;;;;;;;;;;17.10;99.90;;;;;;5093478;28;19912;-64
2022/09/08 05:31:11;;;;;;;;;;;17.10;99.90;;;;;;5093263;28;20388;-65
2022/09/08 05:33:37;;;;;;;;;;;17.10;99.90;;;;;;5093751;28;19912;-64
2022/09/08 05:36:08;;;;;;;;;;;17.10;99.90;;;;;;5097312;28;19957;-64
2022/09/08 05:38:34;;;;;;;;;;;17.00;99.90;;;;;;5097251;28;19931;-64
2022/09/08 05:41:00;;;;;;;;;;;16.90;99.90;;;;;;5092057;28;19915;-64
2022/09/08 05:43:25;;;;;;;;;;;16.90;99.90;;;;;;5082611;28;19912;-64
2022/09/08 05:45:51;;;;;;;;;;;16.90;99.90;;;;;;5082210;28;19909;-65
2022/09/08 05:48:16;;;;;;;;;;;16.90;99.90;;;;;;5068545;28;19920;-65
2022/09/08 05:50:43;;;;;;;;;;;16.90;99.90;;;;;;5076745;28;20011;-65
2022/09/08 05:53:08;;;;;;;;;;;16.90;99.90;;;;;;5076783;28;19916;-65
2022/09/08 05:55:34;;;;;;;;;;;16.90;99.90;;;;;;5076532;28;20252;-65
2022/09/08 05:57:59;;;;;;;;;;;16.90;99.90;;;;;;5076332;28;20007;-65
2022/09/08 06:00:25;;;;;;;;;;;16.90;99.90;;;;;;5076280;28;19912;-65
2022/09/08 06:02:51;;;;;;;;;;;16.90;99.90;;;;;;5058677;28;19912;-64
2022/09/08 06:05:18;;;;;;;;;;;16.90;99.90;;;;;;5076517;28;19908;-64
2022/09/08 06:07:43;;;;;;;;;;;16.90;99.90;;;;;;5076170;28;20273;-64
2022/09/08 06:10:09;;;;;;;;;;;16.90;99.90;;;;;;5076117;28;19908;-64
2022/09/08 06:12:34;;;;;;;;;;;16.80;99.90;;;;;;5076150;28;20386;-64
2022/09/08 06:14:59;;;;;;;;;;;16.80;99.90;;;;;;5058266;28;19952;-64
2022/09/08 06:17:25;;;;;;;;;;;16.80;99.90;;;;;;5076267;28;19908;-64
2022/09/08 06:19:50;;;;;;;;;;;16.80;99.90;;;;;;5076039;28;20393;-64
2022/09/08 06:22:16;;;;;;;;;;;16.80;99.90;;;;;;5075970;28;20405;-62
2022/09/08 06:24:41;;;;;;;;;;;16.90;99.90;;;;;;5075859;28;19916;-62
2022/09/08 06:27:12;;;;;;;;;;;16.80;99.90;;;;;;5075755;28;19962;-63
2022/09/08 06:35:06;;;;;;;;;;;16.90;99.90;;;;;;5091138;27;19913;-64
2022/09/08 06:37:39;;;;;;;;;;;16.90;99.90;;;;;;5091345;28;20003;-64
2022/09/08 06:40:10;;;;;;;;;;;16.90;99.90;;;;;;5087603;28;20003;-63
2022/09/08 06:42:41;;;;;;;;;;;16.90;99.90;;;;;;5072191;28;20344;-63
2022/09/08 06:45:13;;;;;;;;;;;16.90;99.90;;;;;;5075912;28;19915;-63
2022/09/08 06:47:42;;;;;;;;;;;16.90;99.90;;;;;;5078208;28;20370;-63
2022/09/08 06:50:11;;;;;;;;;;;16.80;99.90;;;;;;5083731;28;19912;-63
2022/09/08 06:52:44;;;;;;;;;;;16.80;99.90;;;;;;5079297;28;19908;-63
2022/09/08 06:58:12;;;;;;;;;;;16.80;99.90;;;;;;5083850;27;19920;-64
2022/09/08 07:00:44;;;;;;;;;;;16.80;99.90;;;;;;5087378;28;19919;-64
2022/09/08 07:03:16;;;;;;;;;;;16.70;99.90;;;;;;5072478;28;19913;-63
2022/09/08 07:06:03;;;;;;;;;;;16.70;99.90;;;;;;5071769;28;19912;-64
2022/09/08 07:08:48;;;;;;;;;;;16.70;99.90;;;;;;5070529;28;19995;-64
2022/09/08 07:11:20;;;;;;;;;;;16.70;99.90;;;;;;5089510;28;19951;-64
2022/09/08 07:13:51;;;;;;;;;;;16.70;99.90;;;;;;5089855;28;20263;-63
2022/09/08 07:16:22;;;;;;;;;;;16.70;99.90;;;;;;5090720;28;19919;-65
2022/09/08 07:18:51;;;;;;;;;;;16.70;99.90;;;;;;5077582;28;19965;-64
2022/09/08 07:21:31;;;;;;;;;;;16.70;99.90;;;;;;5070683;28;20283;-64
2022/09/08 07:23:57;;;;;;;;;;;16.70;99.90;;;;;;5083070;28;20321;-64
2022/09/08 07:26:46;;;;;;;;;;;16.70;99.90;;;;;;5090368;28;19912;-64
2022/09/08 07:29:32;;;;;;;;;;;16.60;99.90;;;;;;5073696;28;20371;-64
2022/09/08 07:31:57;;;;;;;;;;;16.60;99.90;;;;;;5070629;28;19909;-64
2022/09/08 07:34:24;;;;;;;;;;;16.60;99.90;;;;;;5091244;28;20014;-64
2022/09/08 07:36:58;;;;;;;;;;;16.60;99.90;;;;;;5090519;28;20259;-64
2022/09/08 07:39:32;;;;;;;;;;;16.60;99.90;;;;;;5069008;28;19947;-64
2022/09/08 07:42:02;;;;;;;;;;;16.50;99.90;;;;;;5080836;28;19912;-64
2022/09/08 07:44:27;;;;;;;;;;;16.60;99.90;;;;;;5084856;28;19943;-65
2022/09/08 07:46:58;;;;;;;;;;;16.60;99.90;;;;;;5070967;28;20359;-65
2022/09/08 07:49:36;;;;;;;;;;;16.60;99.90;;;;;;5087221;28;20027;-66
2022/09/08 07:52:10;;;;;;;;;;;16.60;99.90;;;;;;5075144;28;19912;-65
2022/09/08 07:54:56;;;;;;;;;;;16.70;99.90;;;;;;5088607;28;19915;-65
2022/09/08 07:57:41;;;;;;;;;;;16.70;99.90;;;;;;5104453;28;20325;-65
2022/09/08 08:00:11;;;;;;;;;;;16.70;99.90;;;;;;5105297;28;20961;-65
2022/09/08 08:02:57;;;;;;;;;;;16.80;99.90;;;;;;5106272;28;19959;-64
2022/09/08 08:05:29;;;;;;;;;;;16.80;99.90;;;;;;5106880;28;19916;-65
2022/09/08 08:10:37;;;;;;;;;;;16.90;99.90;;;;;;5069806;28;19923;-64
2022/09/08 08:13:15;;;;;;;;;;;16.90;99.90;;;;;;5071093;28;19982;-64
2022/09/08 08:15:44;;;;;;;;;;;17.00;99.90;;;;;;5061490;28;19921;-64
2022/09/08 08:18:26;;;;;;;;;;;17.00;99.90;;;;;;5067549;28;20325;-63
2022/09/08 08:20:59;;;;;;;;;;;17.00;99.90;;;;;;5056923;28;19913;-64
2022/09/08 08:23:44;;;;;;;;;;;17.10;99.90;;;;;;5050941;28;20082;-63
2022/09/08 08:26:30;;;;;;;;;;;17.00;99.90;;;;;;5059413;28;20256;-64
2022/09/08 08:29:05;;;;;;;;;;;17.10;99.90;;;;;;5066021;28;20012;-64
2022/09/08 08:31:36;;;;;;;;;;;17.20;99.90;;;;;;5049914;28;19935;-63
2022/09/08 08:34:05;;;;;;;;;;;17.20;99.90;;;;;;5050689;28;20386;-63
2022/09/08 08:36:33;;;;;;;;;;;17.20;99.90;;;;;;5054622;28;19909;-63
2022/09/08 08:39:16;;;;;;;;;;;17.30;99.90;;;;;;5068191;28;19920;-64
2022/09/08 08:41:48;;;;;;;;;;;17.20;99.90;;;;;;5034125;28;19959;-63
2022/09/08 08:44:21;;;;;;;;;;;17.20;99.90;;;;;;5048430;28;19917;-63
2022/09/08 08:47:06;;;;;;;;;;;17.20;99.90;;;;;;5048940;28;20015;-63
2022/09/08 08:49:52;;;;;;;;;;;17.20;99.90;;;;;;5045888;28;19945;-63
2022/09/08 08:52:26;;;;;;;;;;;17.30;99.90;;;;;;5066078;28;19919;-65
2022/09/08 08:55:00;;;;;;;;;;;17.20;99.90;;;;;;5057085;28;20268;-63
2022/09/08 08:57:46;;;;;;;;;;;17.20;99.90;;;;;;5066101;28;19956;-64
2022/09/08 09:03:16;;;;;;;;;;;17.30;99.90;;;;;;5070917;28;20287;-63
2022/09/08 09:05:46;;;;;;;;;;;17.40;99.90;;;;;;5070605;28;20283;-64
2022/09/08 09:08:31;;;;;;;;;;;17.30;99.90;;;;;;5070212;28;19944;-65
2022/09/08 09:11:07;;;;;;;;;;;17.30;99.90;;;;;;5059318;28;20017;-65
2022/09/08 09:13:42;;;;;;;;;;;17.30;99.90;;;;;;5068718;28;20367;-64
2022/09/08 09:16:14;;;;;;;;;;;17.40;99.90;;;;;;5068189;28;19955;-63
2022/09/08 09:18:59;;;;;;;;;;;17.40;99.90;;;;;;5062023;28;19912;-63
2022/09/08 09:21:45;;;;;;;;;;;17.40;99.90;;;;;;5067605;28;19964;-64
2022/09/08 09:24:14;;;;;;;;;;;17.60;99.90;;;;;;5058322;28;19913;-64
2022/09/08 09:26:46;;;;;;;;;;;17.60;99.90;;;;;;5069111;28;19913;-64
2022/09/08 09:29:14;;;;;;;;;;;17.70;99.90;;;;;;5068725;28;19955;-65
2022/09/08 09:31:50;;;;;;;;;;;17.70;99.90;;;;;;5067270;28;19912;-64
2022/09/08 09:34:23;;;;;;;;;;;18.00;99.90;;;;;;5069002;28;19917;-63
2022/09/08 09:37:08;;;;;;;;;;;18.00;99.90;;;;;;5068913;28;19944;-65
2022/09/08 09:39:40;;;;;;;;;;;18.00;99.90;;;;;;5068526;28;19912;-63
2022/09/08 09:42:27;;;;;;;;;;;17.90;99.90;;;;;;5052333;28;19916;-62
2022/09/08 09:45:01;;;;;;;;;;;17.70;99.90;;;;;;5050911;28;20383;-63
2022/09/08 09:47:33;;;;;;;;;;;17.60;99.90;;;;;;5050952;28;19920;-65
2022/09/08 09:50:19;;;;;;;;;;;17.50;99.90;;;;;;5079172;28;19913;-63
2022/09/08 09:52:54;;;;;;;;;;;17.40;99.90;;;;;;5050491;28;19939;-63
2022/09/08 09:55:27;;;;;;;;;;;17.30;99.90;;;;;;5050219;28;19956;-63
2022/09/08 09:58:12;;;;;;;;;;;17.20;99.90;;;;;;5060139;28;19966;-63
2022/09/08 10:00:51;;;;;;;;;;;17.30;99.90;;;;;;5058255;28;19970;-63
2022/09/08 10:03:28;;;;;;;;;;;17.20;99.90;;;;;;5088654;28;19920;-63
2022/09/08 10:06:13;;;;;;;;;;;17.20;99.90;;;;;;5070212;28;19912;-63
2022/09/08 10:11:39;;;;;;;;;;;17.10;99.90;;;;;;5007543;28;20294;-65
2022/09/08 10:14:24;;;;;;;;;;;17.10;99.90;;;;;;5007714;28;19915;-64
2022/09/08 10:19:56;;;;;;;;;;;17.40;99.90;;;;;;5090437;27;19934;-65
2022/09/08 10:22:26;;;;;;;;;;;17.40;99.90;;;;;;5050797;28;19913;-64
2022/09/08 10:25:12;;;;;;;;;;;17.40;99.90;;;;;;5052024;28;19916;-64
2022/09/08 10:30:41;;;;;;;;;;;17.60;99.90;;;;;;5066682;28;19917;-64
2022/09/08 10:33:19;;;;;;;;;;;17.70;99.90;;;;;;5050702;28;19913;-63
2022/09/08 10:35:46;;;;;;;;;;;17.60;99.90;;;;;;5057757;28;19908;-64
2022/09/08 10:38:22;;;;;;;;;;;17.50;99.90;;;;;;5068761;28;20357;-64
2022/09/08 10:40:57;;;;;;;;;;;17.50;99.90;;;;;;5067581;28;20403;-64
2022/09/08 10:43:40;;;;;;;;;;;17.40;99.90;;;;;;5059139;28;20372;-64
2022/09/08 10:49:01;;;;;;;;;;;17.40;99.90;;;;;;5090534;27;19921;-64
2022/09/08 10:51:38;;;;;;;;;;;17.50;99.90;;;;;;5082072;28;19920;-64
2022/09/08 10:54:24;;;;;;;;;;;17.80;99.90;;;;;;5069130;28;19909;-63
2022/09/08 10:56:50;;;;;;;;;;;18.10;99.90;;;;;;5070539;28;19909;-63
2022/09/08 10:59:32;;;;;;;;;;;18.40;99.90;;;;;;5089942;28;20021;-62
2022/09/08 11:02:17;;;;;;;;;;;18.40;99.90;;;;;;5091113;28;20409;-63
2022/09/08 11:05:03;;;;;;;;;;;18.50;99.90;;;;;;5090767;28;19915;-63
2022/09/08 11:07:49;;;;;;;;;;;18.50;99.90;;;;;;5090635;28;19912;-65
2022/09/08 11:13:15;;;;;;;;;;;19.10;99.90;;;;;;5071535;28;19919;-64
2022/09/08 11:16:00;;;;;;;;;;;19.00;99.90;;;;;;5070583;28;19920;-64
2022/09/08 11:18:46;;;;;;;;;;;19.10;99.90;;;;;;5062878;28;19917;-65
2022/09/08 11:21:31;;;;;;;;;;;19.40;99.90;;;;;;5054679;28;20406;-62
2022/09/08 11:24:07;;;;;;;;;;;19.10;99.90;;;;;;5055498;28;19962;-62
2022/09/08 11:26:39;;;;;;;;;;;19.20;99.90;;;;;;5070322;28;20019;-64
2022/09/08 11:29:24;;;;;;;;;;;19.20;99.90;;;;;;5041591;28;19913;-64
2022/09/08 11:31:55;;;;;;;;;;;19.20;99.90;;;;;;5044259;28;19955;-63
2022/09/08 11:34:35;;;;;;;;;;;19.20;99.90;;;;;;5036057;28;20346;-63
2022/09/08 11:37:11;;;;;;;;;;;19.10;99.90;;;;;;5052417;28;20039;-63
2022/09/08 11:42:40;;;;;;;;;;;18.80;99.90;;;;;;5087821;27;1854769;-63
2022/09/08 11:45:15;;;;;;;;;;;18.80;99.90;;;;;;5152279;27;19911;-64
2022/09/08 11:48:01;;;;;;;;;;;19.30;99.90;;;;;;5153940;27;20288;-64
2022/09/08 11:50:29;;;;;;;;;;;20.20;99.90;;;;;;5152347;27;20425;-63
2022/09/08 11:53:06;;;;;;;;;;;20.20;99.90;;;;;;5163742;27;19915;-63
2022/09/08 11:55:41;;;;;;;;;;;20.50;99.90;;;;;;5159371;27;19911;-65
2022/09/08 11:58:27;;;;;;;;;;;20.10;99.90;;;;;;5171842;27;19918;-65
2022/09/08 12:01:01;;;;;;;;;;;19.90;99.90;;;;;;5153007;27;20419;-64
2022/09/08 12:03:31;;;;;;;;;;;20.10;99.90;;;;;;5154894;27;20396;-64
2022/09/08 12:06:17;;;;;;;;;;;20.40;99.90;;;;;;5139012;27;20365;-64
2022/09/08 12:09:02;;;;;;;;;;;20.70;99.90;;;;;;5151848;27;20369;-64
2022/09/08 12:11:41;;;;;;;;;;;20.20;99.90;;;;;;5156320;27;19907;-65
2022/09/08 12:14:26;;;;;;;;;;;20.00;99.90;;;;;;5154192;27;19911;-64
2022/09/08 12:17:04;;;;;;;;;;;19.80;99.90;;;;;;5171597;27;19930;-64
2022/09/08 12:19:39;;;;;;;;;;;19.60;99.90;;;;;;5172640;27;19915;-64
2022/09/08 12:22:11;;;;;;;;;;;19.60;99.90;;;;;;5170916;27;19911;-64
2022/09/08 12:24:46;;;;;;;;;;;19.60;99.90;;;;;;5172926;27;20387;-64
2022/09/08 12:27:38;;;;;;;;;;;19.50;99.90;;;;;;5171019;27;20399;-64
2022/09/08 12:30:08;;;;;;;;;;;19.60;99.90;;;;;;5172498;27;19911;-63
2022/09/08 12:35:42;;;;;;;;;;;20.70;99.90;;;;;;5070960;28;19912;-63
2022/09/08 12:38:28;;;;;;;;;;;21.00;99.90;;;;;;5070717;28;20367;-63
2022/09/08 12:41:02;;;;;;;;;;;21.00;99.90;;;;;;5070634;28;20379;-63
2022/09/08 12:43:37;;;;;;;;;;;20.60;99.90;;;;;;5067722;28;19966;-64
2022/09/08 12:46:22;;;;;;;;;;;21.20;99.90;;;;;;5073417;28;20335;-63
2022/09/08 12:49:07;;;;;;;;;;;21.70;99.90;;;;;;5070361;28;20367;-63
2022/09/08 12:51:34;;;;;;;;;;;21.60;99.90;;;;;;5075544;28;19912;-63
2022/09/08 12:54:08;;;;;;;;;;;21.60;99.90;;;;;;5087338;28;20458;-63
2022/09/08 12:56:39;;;;;;;;;;;21.50;99.90;;;;;;5070691;28;19912;-64
2022/09/08 12:59:18;;;;;;;;;;;21.20;99.90;;;;;;5086366;28;20298;-63
2022/09/08 13:01:51;;;;;;;;;;;21.50;99.90;;;;;;5072292;28;19916;-64
2022/09/08 13:04:36;;;;;;;;;;;21.20;99.90;;;;;;5070456;28;20355;-64
2022/09/08 13:07:22;;;;;;;;;;;21.00;99.90;;;;;;5053285;28;20379;-64
2022/09/08 13:09:56;;;;;;;;;;;20.90;99.90;;;;;;5051625;28;20406;-63
2022/09/08 13:12:24;;;;;;;;;;;20.90;99.90;;;;;;5050048;28;19955;-64
2022/09/08 13:15:00;;;;;;;;;;;21.00;99.90;;;;;;5049306;28;19925;-64
2022/09/08 13:17:34;;;;;;;;;;;21.10;99.90;;;;;;5050999;28;19913;-64
2022/09/08 13:20:13;;;;;;;;;;;21.20;99.90;;;;;;5051668;28;20454;-65
2022/09/08 13:22:59;;;;;;;;;;;21.40;99.90;;;;;;5051926;28;19919;-64
2022/09/08 13:25:35;;;;;;;;;;;21.70;99.90;;;;;;5069467;28;20391;-65
2022/09/08 13:28:09;;;;;;;;;;;21.70;99.90;;;;;;5049901;28;19909;-64
2022/09/08 13:30:54;;;;;;;;;;;22.00;99.90;;;;;;5049435;28;19959;-65
2022/09/08 13:33:40;;;;;;;;;;;22.10;99.90;;;;;;5072631;28;19959;-64
2022/09/08 13:36:25;;;;;;;;;;;22.10;99.90;;;;;;5077973;28;19960;-64
2022/09/08 13:39:03;;;;;;;;;;;22.30;99.90;;;;;;5069337;28;20430;-63
2022/09/08 13:41:49;;;;;;;;;;;22.10;99.90;;;;;;5088633;28;19912;-64
2022/09/08 13:44:21;;;;;;;;;;;21.60;99.90;;;;;;5089630;28;19936;-64
2022/09/08 13:47:07;;;;;;;;;;;21.50;99.90;;;;;;5079170;28;20325;-64
2022/09/08 13:49:42;;;;;;;;;;;21.60;99.90;;;;;;5074059;28;19919;-64
2022/09/08 13:52:25;;;;;;;;;;;21.70;99.90;;;;;;5065522;28;19952;-64
2022/09/08 13:55:11;;;;;;;;;;;21.50;99.90;;;;;;5076277;28;19912;-64
2022/09/08 13:57:56;;;;;;;;;;;21.60;99.90;;;;;;5063578;28;19912;-63
2022/09/08 14:00:23;;;;;;;;;;;21.60;99.90;;;;;;5055933;28;19913;-64
2022/09/08 14:02:50;;;;;;;;;;;21.60;99.90;;;;;;5056693;28;19913;-63
2022/09/08 14:05:36;;;;;;;;;;;21.40;99.90;;;;;;5055377;28;19950;-64
2022/09/08 14:13:29;;;;;;;;;;;21.30;99.90;;;;;;5071070;28;19913;-64
2022/09/08 14:16:06;;;;;;;;;;;21.20;99.90;;;;;;5060373;28;19913;-64
2022/09/08 14:18:49;;;;;;;;;;;21.10;99.90;;;;;;5069033;28;19931;-65
2022/09/08 14:21:20;;;;;;;;;;;21.20;99.90;;;;;;5077866;28;19971;-64
2022/09/08 14:23:58;;;;;;;;;;;21.40;99.90;;;;;;5056810;28;19917;-64
2022/09/08 14:26:26;;;;;;;;;;;21.80;99.90;;;;;;5050071;28;19914;-64
2022/09/08 14:28:59;;;;;;;;;;;22.00;99.90;;;;;;5050331;28;19913;-64
2022/09/08 14:31:31;;;;;;;;;;;22.00;99.90;;;;;;5050213;28;19963;-64
2022/09/08 14:34:07;;;;;;;;;;;22.10;99.90;;;;;;5048762;28;20295;-64
2022/09/08 14:36:52;;;;;;;;;;;21.90;99.90;;;;;;5050440;28;19916;-64
2022/09/08 14:42:20;;;;;;;;;;;22.10;99.90;;;;;;5051365;28;20405;-64
2022/09/08 14:47:30;;;;;;;;;;;21.70;99.90;;;;;;5070886;28;19919;-64
2022/09/08 14:50:07;;;;;;;;;;;21.50;99.90;;;;;;5041454;28;19918;-64
2022/09/08 14:52:41;;;;;;;;;;;21.40;99.90;;;;;;5038291;28;20439;-64
2022/09/08 14:55:23;;;;;;;;;;;21.20;99.90;;;;;;5050863;28;20425;-64
2022/09/08 14:57:53;;;;;;;;;;;21.20;99.90;;;;;;5043263;28;19971;-65
2022/09/08 15:00:22;;;;;;;;;;;21.10;99.90;;;;;;5050978;28;20434;-64
2022/09/08 15:02:58;;;;;;;;;;;21.10;99.90;;;;;;5070872;28;19908;-64
2022/09/08 15:05:28;;;;;;;;;;;21.10;99.90;;;;;;5070676;28;19912;-63
2022/09/08 15:07:55;;;;;;;;;;;21.20;99.90;;;;;;5070387;28;19909;-64
2022/09/08 15:10:39;;;;;;;;;;;21.20;99.90;;;;;;5069141;28;19909;-64
2022/09/08 15:15:44;;;;;;;;;;;21.30;99.90;;;;;;5091077;27;19913;-64
2022/09/08 15:18:22;;;;;;;;;;;21.50;99.90;;;;;;5091306;28;19942;-64
2022/09/08 15:21:05;;;;;;;;;;;21.70;99.90;;;;;;5091238;28;19908;-64
2022/09/08 15:23:34;;;;;;;;;;;22.10;99.90;;;;;;5091088;28;20371;-64
2022/09/08 15:28:39;;;;;;;;;;;22.30;99.90;;;;;;5091135;27;19912;-63
2022/09/08 15:31:25;;;;;;;;;;;22.10;99.90;;;;;;5090962;28;19912;-63
2022/09/08 15:33:56;;;;;;;;;;;22.10;99.90;;;;;;5091017;28;19912;-63
2022/09/08 15:36:31;;;;;;;;;;;22.20;99.90;;;;;;5090968;28;19909;-63
2022/09/08 15:39:03;;;;;;;;;;;22.10;99.90;;;;;;5091213;28;19916;-63
2022/09/08 15:41:31;;;;;;;;;;;22.10;99.90;;;;;;5091162;28;20424;-63
2022/09/08 15:44:09;;;;;;;;;;;21.80;99.90;;;;;;5091098;28;19908;-63